Larvik — C6VC2 — position and weather

sailwx.info

Track history (hours):
 
Tides and Currents Weather Stations Pressure Air Temp Water Temp Dewpoint Dewpoint Depression Visibility Wind Speed Wind Dir Waves Ship Positions

Larvik

Last reported at 2016-Jul-21 21:33 UTC. Time now 2016-Jul-31 07:27 UTC.
Position N 59°31' W 004°59'.
Warning: this ship's position is 9 days out of date.

Length 214 m; draft 11.3 m.

Type: Tanker. MMSI: 308371000.

Date/timePositionNaut miles runAvg speedWind from/ knotsBaromVisibWave heightAir tempDewpointWater temp
2016-Jul-21 21:33N 59°31' W 004°59'1411.5
2016-Jul-21 20:18N 59°33' W 004°31'27811.6
2016-Jul-20 20:12N 58°18' E 004°08'812.3
2016-Jul-20 19:33N 58°14' E 004°21'1412.2
2016-Jul-20 18:26N 58°06' E 004°43'1312.2
2016-Jul-20 17:22N 57°59' E 005°03'1012.2
2016-Jul-20 16:33N 57°54' E 005°20'1312.1
2016-Jul-20 15:31N 57°47' E 005°40'1212.1
2016-Jul-20 14:33N 57°41' E 005°58'1212.1
2016-Jul-20 13:32N 57°34' E 006°17'1211.8
2016-Jul-20 12:34N 57°30' E 006°37'1212.1
2016-Jul-20 11:33N 57°30' E 006°60'8111.5
2016-Jul-20 04:30N 57°51' E 009°26'7 7.2
2016-Jul-20 03:33N 57°53' E 009°38'1111.0
2016-Jul-20 02:33N 57°55' E 009°58'1110.8
2016-Jul-20 01:31N 57°55' E 010°19'1111.1
2016-Jul-20 00:33N 57°55' E 010°39'1212.0
2016-Jul-19 23:33N 57°55' E 011°01'1110.6
2016-Jul-19 22:33N 57°56' E 011°21'0 0.1
2016-Jul-19 21:29N 57°56' E 011°22'0 0.0
2016-Jul-19 20:32N 57°56' E 011°22'0 0.0
2016-Jul-19 19:32N 57°56' E 011°22'0 0.1
2016-Jul-19 18:32N 57°56' E 011°22'0 0.0
2016-Jul-19 17:17N 57°56' E 011°22'0 0.0
2016-Jul-19 16:26N 57°56' E 011°22'0 0.0
2016-Jul-19 15:32N 57°56' E 011°22'0 0.0
2016-Jul-19 14:32N 57°56' E 011°22'0 0.0
2016-Jul-19 13:32N 57°56' E 011°22'0 0.0
2016-Jul-19 12:32N 57°56' E 011°22'0 0.0
2016-Jul-19 11:32N 57°56' E 011°22'0 0.0
2016-Jul-19 10:32N 57°56' E 011°22'0 0.0
2016-Jul-19 09:32N 57°56' E 011°22'0 0.0
2016-Jul-19 08:32N 57°56' E 011°22'0 0.0
2016-Jul-19 07:32N 57°56' E 011°22'11 3.8
2016-Jul-19 04:34N 57°57' E 011°42'8 7.8
2016-Jul-19 03:33N 58°05' E 011°47'1 0.9
2016-Jul-19 02:28N 58°05' E 011°49'0 0.0
2016-Jul-19 01:31N 58°05' E 011°49'0 0.0
2016-Jul-19 00:31N 58°05' E 011°49'0 0.0
2016-Jul-18 23:31N 58°05' E 011°49'0 0.0
2016-Jul-18 22:31N 58°05' E 011°49'0 0.0
2016-Jul-18 21:31N 58°05' E 011°49'0 0.0
2016-Jul-18 20:23N 58°05' E 011°49'0 0.0
2016-Jul-18 19:25N 58°05' E 011°49'0 0.0
2016-Jul-18 18:25N 58°05' E 011°49'0 0.0
2016-Jul-18 17:31N 58°05' E 011°49'0 0.0
2016-Jul-18 16:31N 58°05' E 011°49'0 0.0
2016-Jul-18 15:32N 58°05' E 011°49'0 0.0
2016-Jul-18 14:25N 58°05' E 011°49'0 0.0
2016-Jul-18 13:32N 58°05' E 011°49'0 0.0
2016-Jul-18 12:26N 58°05' E 011°49'0 0.0
2016-Jul-18 11:32N 58°05' E 011°49'0 0.0
2016-Jul-18 10:31N 58°05' E 011°49'0 0.0
2016-Jul-18 09:32N 58°05' E 011°49'0 0.0
2016-Jul-18 08:31N 58°05' E 011°49'0 0.0
2016-Jul-18 07:32N 58°05' E 011°49'0 0.0
2016-Jul-18 06:31N 58°05' E 011°49'0 0.0
2016-Jul-18 05:31N 58°05' E 011°49'0 0.0
2016-Jul-18 04:31N 58°05' E 011°49'0 0.0
2016-Jul-18 03:32N 58°05' E 011°49'0 0.0
2016-Jul-18 02:31N 58°05' E 011°49'0 0.0
2016-Jul-18 01:31N 58°05' E 011°49'0 0.0
2016-Jul-18 00:32N 58°05' E 011°49'0 0.0
2016-Jul-17 23:31N 58°05' E 011°49'0 0.0
2016-Jul-17 22:31N 58°05' E 011°49'0 0.0
2016-Jul-17 21:31N 58°05' E 011°49'0 0.0
2016-Jul-17 20:31N 58°05' E 011°49'0 0.0
2016-Jul-17 19:32N 58°05' E 011°49'0 0.0
2016-Jul-17 18:31N 58°05' E 011°49'0 0.0
2016-Jul-17 17:31N 58°05' E 011°49'0 0.0
2016-Jul-17 16:31N 58°05' E 011°49'0 0.0
2016-Jul-17 15:29N 58°05' E 011°49'0 0.0
2016-Jul-17 14:31N 58°05' E 011°49'0 0.0
2016-Jul-17 13:28N 58°05' E 011°49'0 0.0
2016-Jul-17 12:31N 58°05' E 011°49'0 0.0
2016-Jul-17 11:31N 58°05' E 011°49'0 0.0
2016-Jul-17 10:31N 58°05' E 011°49'0 0.0
2016-Jul-17 09:32N 58°05' E 011°49'0 0.0
2016-Jul-17 08:31N 58°05' E 011°49'0 0.0
2016-Jul-17 07:28N 58°05' E 011°49'0 0.0
2016-Jul-17 06:29N 58°05' E 011°49'0 0.0
2016-Jul-17 04:32N 58°05' E 011°49'0 0.0
2016-Jul-17 03:31N 58°05' E 011°49'0 0.0
2016-Jul-17 02:32N 58°05' E 011°49'0 0.0
2016-Jul-17 01:28N 58°05' E 011°49'0 0.0
2016-Jul-17 00:32N 58°05' E 011°49'0 0.0
2016-Jul-16 23:31N 58°05' E 011°49'0 0.0
2016-Jul-16 22:31N 58°05' E 011°49'0 0.0
2016-Jul-16 21:31N 58°05' E 011°49'0 0.0
2016-Jul-16 20:31N 58°05' E 011°49'0 0.0
2016-Jul-16 19:32N 58°05' E 011°49'0 0.0
2016-Jul-16 18:31N 58°05' E 011°49'0 0.0
2016-Jul-16 17:32N 58°05' E 011°49'0 0.0
2016-Jul-16 16:31N 58°05' E 011°49'0 0.0
2016-Jul-16 15:29N 58°05' E 011°49'0 0.1
2016-Jul-16 14:33N 58°05' E 011°49'4 3.7
2016-Jul-16 13:33N 58°02' E 011°47'9 8.8
2016-Jul-16 12:33N 57°55' E 011°36'7 7.0
2016-Jul-16 11:33N 57°51' E 011°26'3 3.4
2016-Jul-16 10:33N 57°51' E 011°19'8 7.6
2016-Jul-16 09:33N 57°52' E 011°05'1211.7
2016-Jul-16 08:33N 57°52' E 010°43'1212.3
2016-Jul-16 07:33N 57°52' E 010°20'27712.5
2016-Jul-15 09:26N 54°22' E 004°55'8812.2
2016-Jul-15 02:13N 53°10' E 003°31'5411.6
2016-Jul-14 21:33N 52°16' E 003°13'1413.0
2016-Jul-14 20:29N 52°09' E 003°32'1111.7
2016-Jul-14 19:34N 52°05' E 003°48'8 8.3
2016-Jul-14 18:33N 52°00' E 003°60'8 8.5
2016-Jul-14 17:33N 51°56' E 004°12'0 0.5
2016-Jul-14 16:33N 51°55' E 004°12'0 0.0
2016-Jul-14 15:30N 51°55' E 004°12'0 0.0
2016-Jul-14 14:33N 51°55' E 004°12'0 0.0
2016-Jul-14 13:33N 51°55' E 004°12'0 0.0
2016-Jul-14 12:27N 51°55' E 004°12'0 0.0
2016-Jul-14 11:33N 51°55' E 004°12'0 0.0
2016-Jul-14 10:27N 51°55' E 004°12'0 0.0
2016-Jul-14 09:24N 51°55' E 004°12'0 0.0
2016-Jul-14 08:33N 51°55' E 004°12'0 0.0
2016-Jul-14 07:33N 51°55' E 004°12'0 0.0
2016-Jul-14 06:33N 51°55' E 004°12'0 0.0
2016-Jul-14 05:33N 51°55' E 004°12'0 0.0
2016-Jul-14 04:33N 51°55' E 004°12'0 0.0
2016-Jul-14 03:33N 51°55' E 004°12'0 0.0
2016-Jul-14 02:24N 51°55' E 004°12'0 0.0
2016-Jul-14 01:33N 51°55' E 004°12'0 0.0
2016-Jul-14 00:33N 51°55' E 004°12'0 0.0
2016-Jul-13 23:33N 51°55' E 004°12'0 0.0
2016-Jul-13 22:33N 51°55' E 004°12'0 0.0
2016-Jul-13 21:33N 51°55' E 004°12'0 0.0
2016-Jul-13 20:33N 51°55' E 004°12'0 0.0
2016-Jul-13 19:33N 51°55' E 004°12'0 0.0
2016-Jul-13 18:30N 51°55' E 004°12'0 0.0
2016-Jul-13 17:33N 51°55' E 004°12'0 0.0
2016-Jul-13 16:33N 51°55' E 004°12'0 0.0
2016-Jul-13 15:33N 51°55' E 004°12'0 0.0
2016-Jul-13 14:33N 51°55' E 004°12'0 0.0
2016-Jul-13 13:33N 51°55' E 004°12'0 0.0
2016-Jul-13 12:33N 51°55' E 004°12'0 0.0
2016-Jul-13 11:33N 51°55' E 004°12'0 0.0
2016-Jul-13 10:33N 51°55' E 004°12'0 0.0
2016-Jul-13 09:33N 51°55' E 004°12'0 0.0
2016-Jul-13 08:33N 51°55' E 004°12'0 0.0
2016-Jul-13 07:30N 51°55' E 004°12'0 0.0
2016-Jul-13 06:30N 51°55' E 004°12'0 0.0
2016-Jul-13 05:33N 51°55' E 004°12'0 0.0
2016-Jul-13 04:33N 51°55' E 004°12'0 0.0
2016-Jul-13 03:30N 51°55' E 004°12'0 0.0
2016-Jul-13 02:33N 51°55' E 004°12'0 0.0
2016-Jul-13 01:33N 51°55' E 004°12'0 0.0
2016-Jul-13 00:33N 51°55' E 004°12'0 0.0
2016-Jul-12 23:33N 51°55' E 004°12'0 0.0
2016-Jul-12 22:33N 51°55' E 004°12'0 0.0
2016-Jul-12 21:33N 51°55' E 004°12'0 0.0
2016-Jul-12 20:33N 51°55' E 004°12'0 0.0
2016-Jul-12 19:33N 51°55' E 004°12'0 0.0
2016-Jul-12 18:33N 51°55' E 004°12'0 0.0
2016-Jul-12 17:30N 51°55' E 004°12'0 0.0
2016-Jul-12 16:33N 51°55' E 004°12'0 0.0
2016-Jul-12 15:30N 51°55' E 004°12'0 0.0
2016-Jul-12 14:33N 51°55' E 004°12'0 0.0
2016-Jul-12 13:33N 51°55' E 004°12'4 3.6
2016-Jul-12 12:33N 51°58' E 004°08'9 8.8
2016-Jul-12 11:33N 51°59' E 003°53'3 3.0
2016-Jul-12 10:33N 51°59' E 003°49'3 3.0
2016-Jul-12 09:33N 52°01' E 003°47'10 9.7
2016-Jul-12 08:33N 52°06' E 003°33'3210.7
2016-Jul-12 05:33N 52°29' E 002°55'1312.7
2016-Jul-12 04:33N 52°40' E 003°04'1313.3
2016-Jul-12 03:33N 52°52' E 003°14'1413.5
2016-Jul-12 02:31N 53°05' E 003°22'  
Track history (hours):
 
Tides and Currents Weather Stations Pressure Air Temp Water Temp Dewpoint Dewpoint Depression Visibility Wind Speed Wind Dir Waves Ship Positions

Larvik

Last reported at 2016-Jul-21 21:33 UTC. Time now 2016-Jul-31 07:27 UTC.
Position N 59°31' W 004°59'.
Warning: this ship's position is 9 days out of date.

Length 214 m; draft 11.3 m.

Type: Tanker. MMSI: 308371000.

Date/timePositionNaut miles runAvg speedWind from/ knotsBaromVisibWave heightAir tempDewpointWater temp
2016-Jul-21 21:33N 59°31' W 004°59'1411.5
2016-Jul-21 20:18N 59°33' W 004°31'27811.6
2016-Jul-20 20:12N 58°18' E 004°08'812.3
2016-Jul-20 19:33N 58°14' E 004°21'1412.2
2016-Jul-20 18:26N 58°06' E 004°43'1312.2
2016-Jul-20 17:22N 57°59' E 005°03'1012.2
2016-Jul-20 16:33N 57°54' E 005°20'1312.1
2016-Jul-20 15:31N 57°47' E 005°40'1212.1
2016-Jul-20 14:33N 57°41' E 005°58'1212.1
2016-Jul-20 13:32N 57°34' E 006°17'1211.8
2016-Jul-20 12:34N 57°30' E 006°37'1212.1
2016-Jul-20 11:33N 57°30' E 006°60'8111.5
2016-Jul-20 04:30N 57°51' E 009°26'7 7.2
2016-Jul-20 03:33N 57°53' E 009°38'1111.0
2016-Jul-20 02:33N 57°55' E 009°58'1110.8
2016-Jul-20 01:31N 57°55' E 010°19'1111.1
2016-Jul-20 00:33N 57°55' E 010°39'1212.0
2016-Jul-19 23:33N 57°55' E 011°01'1110.6
2016-Jul-19 22:33N 57°56' E 011°21'0 0.1
2016-Jul-19 21:29N 57°56' E 011°22'0 0.0
2016-Jul-19 20:32N 57°56' E 011°22'0 0.0
2016-Jul-19 19:32N 57°56' E 011°22'0 0.1
2016-Jul-19 18:32N 57°56' E 011°22'0 0.0
2016-Jul-19 17:17N 57°56' E 011°22'0 0.0
2016-Jul-19 16:26N 57°56' E 011°22'0 0.0
2016-Jul-19 15:32N 57°56' E 011°22'0 0.0
2016-Jul-19 14:32N 57°56' E 011°22'0 0.0
2016-Jul-19 13:32N 57°56' E 011°22'0 0.0
2016-Jul-19 12:32N 57°56' E 011°22'0 0.0
2016-Jul-19 11:32N 57°56' E 011°22'0 0.0
2016-Jul-19 10:32N 57°56' E 011°22'0 0.0
2016-Jul-19 09:32N 57°56' E 011°22'0 0.0
2016-Jul-19 08:32N 57°56' E 011°22'0 0.0
2016-Jul-19 07:32N 57°56' E 011°22'11 3.8
2016-Jul-19 04:34N 57°57' E 011°42'8 7.8
2016-Jul-19 03:33N 58°05' E 011°47'1 0.9
2016-Jul-19 02:28N 58°05' E 011°49'0 0.0
2016-Jul-19 01:31N 58°05' E 011°49'0 0.0
2016-Jul-19 00:31N 58°05' E 011°49'0 0.0
2016-Jul-18 23:31N 58°05' E 011°49'0 0.0
2016-Jul-18 22:31N 58°05' E 011°49'0 0.0
2016-Jul-18 21:31N 58°05' E 011°49'0 0.0
2016-Jul-18 20:23N 58°05' E 011°49'0 0.0
2016-Jul-18 19:25N 58°05' E 011°49'0 0.0
2016-Jul-18 18:25N 58°05' E 011°49'0 0.0
2016-Jul-18 17:31N 58°05' E 011°49'0 0.0
2016-Jul-18 16:31N 58°05' E 011°49'0 0.0
2016-Jul-18 15:32N 58°05' E 011°49'0 0.0
2016-Jul-18 14:25N 58°05' E 011°49'0 0.0
2016-Jul-18 13:32N 58°05' E 011°49'0 0.0
2016-Jul-18 12:26N 58°05' E 011°49'0 0.0
2016-Jul-18 11:32N 58°05' E 011°49'0 0.0
2016-Jul-18 10:31N 58°05' E 011°49'0 0.0
2016-Jul-18 09:32N 58°05' E 011°49'0 0.0
2016-Jul-18 08:31N 58°05' E 011°49'0 0.0
2016-Jul-18 07:32N 58°05' E 011°49'0 0.0
2016-Jul-18 06:31N 58°05' E 011°49'0 0.0
2016-Jul-18 05:31N 58°05' E 011°49'0 0.0
2016-Jul-18 04:31N 58°05' E 011°49'0 0.0
2016-Jul-18 03:32N 58°05' E 011°49'0 0.0
2016-Jul-18 02:31N 58°05' E 011°49'0 0.0
2016-Jul-18 01:31N 58°05' E 011°49'0 0.0
2016-Jul-18 00:32N 58°05' E 011°49'0 0.0
2016-Jul-17 23:31N 58°05' E 011°49'0 0.0
2016-Jul-17 22:31N 58°05' E 011°49'0 0.0
2016-Jul-17 21:31N 58°05' E 011°49'0 0.0
2016-Jul-17 20:31N 58°05' E 011°49'0 0.0
2016-Jul-17 19:32N 58°05' E 011°49'0 0.0
2016-Jul-17 18:31N 58°05' E 011°49'0 0.0
2016-Jul-17 17:31N 58°05' E 011°49'0 0.0
2016-Jul-17 16:31N 58°05' E 011°49'0 0.0
2016-Jul-17 15:29N 58°05' E 011°49'0 0.0
2016-Jul-17 14:31N 58°05' E 011°49'0 0.0
2016-Jul-17 13:28N 58°05' E 011°49'0 0.0
2016-Jul-17 12:31N 58°05' E 011°49'0 0.0
2016-Jul-17 11:31N 58°05' E 011°49'0 0.0
2016-Jul-17 10:31N 58°05' E 011°49'0 0.0
2016-Jul-17 09:32N 58°05' E 011°49'0 0.0
2016-Jul-17 08:31N 58°05' E 011°49'0 0.0
2016-Jul-17 07:28N 58°05' E 011°49'0 0.0
2016-Jul-17 06:29N 58°05' E 011°49'0 0.0
2016-Jul-17 04:32N 58°05' E 011°49'0 0.0
2016-Jul-17 03:31N 58°05' E 011°49'0 0.0
2016-Jul-17 02:32N 58°05' E 011°49'0 0.0
2016-Jul-17 01:28N 58°05' E 011°49'0 0.0
2016-Jul-17 00:32N 58°05' E 011°49'0 0.0
2016-Jul-16 23:31N 58°05' E 011°49'0 0.0
2016-Jul-16 22:31N 58°05' E 011°49'0 0.0
2016-Jul-16 21:31N 58°05' E 011°49'0 0.0
2016-Jul-16 20:31N 58°05' E 011°49'0 0.0
2016-Jul-16 19:32N 58°05' E 011°49'0 0.0
2016-Jul-16 18:31N 58°05' E 011°49'0 0.0
2016-Jul-16 17:32N 58°05' E 011°49'0 0.0
2016-Jul-16 16:31N 58°05' E 011°49'0 0.0
2016-Jul-16 15:29N 58°05' E 011°49'0 0.1
2016-Jul-16 14:33N 58°05' E 011°49'4 3.7
2016-Jul-16 13:33N 58°02' E 011°47'9 8.8
2016-Jul-16 12:33N 57°55' E 011°36'7 7.0
2016-Jul-16 11:33N 57°51' E 011°26'3 3.4
2016-Jul-16 10:33N 57°51' E 011°19'8 7.6
2016-Jul-16 09:33N 57°52' E 011°05'1211.7
2016-Jul-16 08:33N 57°52' E 010°43'1212.3
2016-Jul-16 07:33N 57°52' E 010°20'27712.5
2016-Jul-15 09:26N 54°22' E 004°55'8812.2
2016-Jul-15 02:13N 53°10' E 003°31'5411.6
2016-Jul-14 21:33N 52°16' E 003°13'1413.0
2016-Jul-14 20:29N 52°09' E 003°32'1111.7
2016-Jul-14 19:34N 52°05' E 003°48'8 8.3
2016-Jul-14 18:33N 52°00' E 003°60'8 8.5
2016-Jul-14 17:33N 51°56' E 004°12'0 0.5
2016-Jul-14 16:33N 51°55' E 004°12'0 0.0
2016-Jul-14 15:30N 51°55' E 004°12'0 0.0
2016-Jul-14 14:33N 51°55' E 004°12'0 0.0
2016-Jul-14 13:33N 51°55' E 004°12'0 0.0
2016-Jul-14 12:27N 51°55' E 004°12'0 0.0
2016-Jul-14 11:33N 51°55' E 004°12'0 0.0
2016-Jul-14 10:27N 51°55' E 004°12'0 0.0
2016-Jul-14 09:24N 51°55' E 004°12'0 0.0
2016-Jul-14 08:33N 51°55' E 004°12'0 0.0
2016-Jul-14 07:33N 51°55' E 004°12'0 0.0
2016-Jul-14 06:33N 51°55' E 004°12'0 0.0
2016-Jul-14 05:33N 51°55' E 004°12'0 0.0
2016-Jul-14 04:33N 51°55' E 004°12'0 0.0
2016-Jul-14 03:33N 51°55' E 004°12'0 0.0
2016-Jul-14 02:24N 51°55' E 004°12'0 0.0
2016-Jul-14 01:33N 51°55' E 004°12'0 0.0
2016-Jul-14 00:33N 51°55' E 004°12'0 0.0
2016-Jul-13 23:33N 51°55' E 004°12'0 0.0
2016-Jul-13 22:33N 51°55' E 004°12'0 0.0
2016-Jul-13 21:33N 51°55' E 004°12'0 0.0
2016-Jul-13 20:33N 51°55' E 004°12'0 0.0
2016-Jul-13 19:33N 51°55' E 004°12'0 0.0
2016-Jul-13 18:30N 51°55' E 004°12'0 0.0
2016-Jul-13 17:33N 51°55' E 004°12'0 0.0
2016-Jul-13 16:33N 51°55' E 004°12'0 0.0
2016-Jul-13 15:33N 51°55' E 004°12'0 0.0
2016-Jul-13 14:33N 51°55' E 004°12'0 0.0
2016-Jul-13 13:33N 51°55' E 004°12'0 0.0
2016-Jul-13 12:33N 51°55' E 004°12'0 0.0
2016-Jul-13 11:33N 51°55' E 004°12'0 0.0
2016-Jul-13 10:33N 51°55' E 004°12'0 0.0
2016-Jul-13 09:33N 51°55' E 004°12'0 0.0
2016-Jul-13 08:33N 51°55' E 004°12'0 0.0
2016-Jul-13 07:30N 51°55' E 004°12'0 0.0
2016-Jul-13 06:30N 51°55' E 004°12'0 0.0
2016-Jul-13 05:33N 51°55' E 004°12'0 0.0
2016-Jul-13 04:33N 51°55' E 004°12'0 0.0
2016-Jul-13 03:30N 51°55' E 004°12'0 0.0
2016-Jul-13 02:33N 51°55' E 004°12'0 0.0
2016-Jul-13 01:33N 51°55' E 004°12'0 0.0
2016-Jul-13 00:33N 51°55' E 004°12'0 0.0
2016-Jul-12 23:33N 51°55' E 004°12'0 0.0
2016-Jul-12 22:33N 51°55' E 004°12'0 0.0
2016-Jul-12 21:33N 51°55' E 004°12'0 0.0
2016-Jul-12 20:33N 51°55' E 004°12'0 0.0
2016-Jul-12 19:33N 51°55' E 004°12'0 0.0
2016-Jul-12 18:33N 51°55' E 004°12'0 0.0
2016-Jul-12 17:30N 51°55' E 004°12'0 0.0
2016-Jul-12 16:33N 51°55' E 004°12'0 0.0
2016-Jul-12 15:30N 51°55' E 004°12'0 0.0
2016-Jul-12 14:33N 51°55' E 004°12'0 0.0
2016-Jul-12 13:33N 51°55' E 004°12'4 3.6
2016-Jul-12 12:33N 51°58' E 004°08'9 8.8
2016-Jul-12 11:33N 51°59' E 003°53'3 3.0
2016-Jul-12 10:33N 51°59' E 003°49'3 3.0
2016-Jul-12 09:33N 52°01' E 003°47'10 9.7
2016-Jul-12 08:33N 52°06' E 003°33'3210.7
2016-Jul-12 05:33N 52°29' E 002°55'1312.7
2016-Jul-12 04:33N 52°40' E 003°04'1313.3
2016-Jul-12 03:33N 52°52' E 003°14'1413.5
2016-Jul-12 02:31N 53°05' E 003°22'  

Dump ship's entire track history